sensor_id;sensor_type;location;lat;lon;timestamp;pressure;altitude;pressure_sealevel;temperature;humidity
7524;BME280;3803;51.666;7.630;2023-04-04T00:00:00;102381.34;;;0.84;52.17
7524;BME280;3803;51.666;7.630;2023-04-04T00:00:21;102374.09;;;0.79;52.11
7524;BME280;3803;51.666;7.630;2023-04-04T00:00:41;102381.03;;;0.80;52.18
7524;BME280;3803;51.666;7.630;2023-04-04T00:01:02;102393.72;;;0.88;52.11
7524;BME280;3803;51.666;7.630;2023-04-04T00:01:23;102379.22;;;0.79;52.10
7524;BME280;3803;51.666;7.630;2023-04-04T00:01:44;102377.44;;;0.78;52.03
7524;BME280;3803;51.666;7.630;2023-04-04T00:02:05;102389.81;;;0.83;52.16
7524;BME280;3803;51.666;7.630;2023-04-04T00:02:25;102371.69;;;0.72;52.13
7524;BME280;3803;51.666;7.630;2023-04-04T00:02:47;102397.03;;;0.87;52.23
7524;BME280;3803;51.666;7.630;2023-04-04T00:03:29;102390.69;;;0.92;51.95
7524;BME280;3803;51.666;7.630;2023-04-04T00:03:50;102385.56;;;0.83;52.04
7524;BME280;3803;51.666;7.630;2023-04-04T00:04:11;102371.25;;;0.76;51.90
7524;BME280;3803;51.666;7.630;2023-04-04T00:04:32;102385.41;;;0.81;52.22
7524;BME280;3803;51.666;7.630;2023-04-04T00:04:52;102380.75;;;0.77;52.09
7524;BME280;3803;51.666;7.630;2023-04-04T00:05:13;102379.22;;;0.79;52.11
7524;BME280;3803;51.666;7.630;2023-04-04T00:05:34;102380.00;;;0.78;52.30
7524;BME280;3803;51.666;7.630;2023-04-04T00:05:55;102373.81;;;0.76;52.43
7524;BME280;3803;51.666;7.630;2023-04-04T00:06:18;102384.09;;;0.76;52.26
7524;BME280;3803;51.666;7.630;2023-04-04T00:06:39;102380.00;;;0.78;52.14
7524;BME280;3803;51.666;7.630;2023-04-04T00:07:03;102374.28;;;0.72;52.29
7524;BME280;3803;51.666;7.630;2023-04-04T00:07:24;102372.63;;;0.73;52.46
7524;BME280;3803;51.666;7.630;2023-04-04T00:07:45;102374.28;;;0.72;52.25
7524;BME280;3803;51.666;7.630;2023-04-04T00:08:06;102374.28;;;0.72;52.59
7524;BME280;3803;51.666;7.630;2023-04-04T00:08:27;102380.50;;;0.74;52.24
7524;BME280;3803;51.666;7.630;2023-04-04T00:08:47;102368.09;;;0.70;52.41
7524;BME280;3803;51.666;7.630;2023-04-04T00:09:08;102369.63;;;0.68;52.28
7524;BME280;3803;51.666;7.630;2023-04-04T00:09:28;102376.84;;;0.72;52.41
7524;BME280;3803;51.666;7.630;2023-04-04T00:09:50;102373.22;;;0.70;52.33
7524;BME280;3803;51.666;7.630;2023-04-04T00:10:10;102381.09;;;0.72;52.25
7524;BME280;3803;51.666;7.630;2023-04-04T00:10:31;102371.44;;;0.69;52.49
7524;BME280;3803;51.666;7.630;2023-04-04T00:10:58;102366.00;;;0.66;52.67
7524;BME280;3803;51.666;7.630;2023-04-04T00:11:19;102389.84;;;0.74;52.35
7524;BME280;3803;51.666;7.630;2023-04-04T00:11:41;102377.00;;;0.74;52.59
7524;BME280;3803;51.666;7.630;2023-04-04T00:12:02;102387.28;;;0.74;52.77
7524;BME280;3803;51.666;7.630;2023-04-04T00:12:23;102366.63;;;0.63;52.55
7524;BME280;3803;51.666;7.630;2023-04-04T00:12:45;102361.16;;;0.60;52.76
7524;BME280;3803;51.666;7.630;2023-04-04T00:13:05;102367.81;;;0.67;52.72
7524;BME280;3803;51.666;7.630;2023-04-04T00:13:27;102365.69;;;0.63;52.75
7524;BME280;3803;51.666;7.630;2023-04-04T00:13:48;102372.66;;;0.64;52.33
7524;BME280;3803;51.666;7.630;2023-04-04T00:14:09;102364.66;;;0.61;52.78
7524;BME280;3803;51.666;7.630;2023-04-04T00:14:29;102375.09;;;0.62;52.71
7524;BME280;3803;51.666;7.630;2023-04-04T00:14:51;102356.38;;;0.55;52.73
7524;BME280;3803;51.666;7.630;2023-04-04T00:15:12;102375.09;;;0.62;52.58
7524;BME280;3803;51.666;7.630;2023-04-04T00:15:32;102358.47;;;0.59;52.90
7524;BME280;3803;51.666;7.630;2023-04-04T00:15:55;102369.03;;;0.62;52.66
7524;BME280;3803;51.666;7.630;2023-04-04T00:16:16;102364.06;;;0.63;52.68
7524;BME280;3803;51.666;7.630;2023-04-04T00:16:37;102386.34;;;0.73;52.56
7524;BME280;3803;51.666;7.630;2023-04-04T00:16:57;102360.28;;;0.60;52.73
7524;BME280;3803;51.666;7.630;2023-04-04T00:17:18;102373.13;;;0.60;52.68
7524;BME280;3803;51.666;7.630;2023-04-04T00:17:38;102361.78;;;0.58;52.52
7524;BME280;3803;51.666;7.630;2023-04-04T00:17:59;102369.66;;;0.59;52.82
7524;BME280;3803;51.666;7.630;2023-04-04T00:18:19;102378.41;;;0.61;53.05
7524;BME280;3803;51.666;7.630;2023-04-04T00:18:40;102379.03;;;0.59;52.66
7524;BME280;3803;51.666;7.630;2023-04-04T00:19:01;102376.75;;;0.62;53.00
7524;BME280;3803;51.666;7.630;2023-04-04T00:19:22;102382.94;;;0.64;52.81
7524;BME280;3803;51.666;7.630;2023-04-04T00:19:44;102359.13;;;0.47;52.80
7524;BME280;3803;51.666;7.630;2023-04-04T00:20:06;102371.78;;;0.55;52.78
7524;BME280;3803;51.666;7.630;2023-04-04T00:20:26;102366.06;;;0.48;52.70
7524;BME280;3803;51.666;7.630;2023-04-04T00:20:47;102385.97;;;0.60;52.85
7524;BME280;3803;51.666;7.630;2023-04-04T00:21:07;102382.34;;;0.58;52.98
7524;BME280;3803;51.666;7.630;2023-04-04T00:21:28;102359.88;;;0.46;52.97
7524;BME280;3803;51.666;7.630;2023-04-04T00:21:49;102362.44;;;0.46;52.81
7524;BME280;3803;51.666;7.630;2023-04-04T00:22:10;102361.41;;;0.44;52.81
7524;BME280;3803;51.666;7.630;2023-04-04T00:22:33;102365.78;;;0.45;52.71
7524;BME280;3803;51.666;7.630;2023-04-04T00:22:53;102363.97;;;0.44;52.94
7524;BME280;3803;51.666;7.630;2023-04-04T00:23:14;102365.78;;;0.45;53.00
7524;BME280;3803;51.666;7.630;2023-04-04T00:23:34;102376.75;;;0.53;52.83
7524;BME280;3803;51.666;7.630;2023-04-04T00:23:56;102371.97;;;0.47;53.04
7524;BME280;3803;51.666;7.630;2023-04-04T00:24:16;102359.59;;;0.43;53.20
7524;BME280;3803;51.666;7.630;2023-04-04T00:24:37;102359.72;;;0.45;52.97
7524;BME280;3803;51.666;7.630;2023-04-04T00:24:57;102361.41;;;0.44;52.95
7524;BME280;3803;51.666;7.630;2023-04-04T00:25:18;102378.13;;;0.49;52.92
7524;BME280;3803;51.666;7.630;2023-04-04T00:25:39;102362.16;;;0.43;53.16
7524;BME280;3803;51.666;7.630;2023-04-04T00:26:00;102367.31;;;0.43;53.07
7524;BME280;3803;51.666;7.630;2023-04-04T00:26:20;102369.44;;;0.38;53.15
7524;BME280;3803;51.666;7.630;2023-04-04T00:26:41;102373.47;;;0.45;53.13
7524;BME280;3803;51.666;7.630;2023-04-04T00:27:02;102387.53;;;0.49;52.90
7524;BME280;3803;51.666;7.630;2023-04-04T00:27:23;102372.91;;;0.39;53.04
7524;BME280;3803;51.666;7.630;2023-04-04T00:27:44;102369.44;;;0.38;53.18
7524;BME280;3803;51.666;7.630;2023-04-04T00:28:04;102372.13;;;0.40;53.30
7524;BME280;3803;51.666;7.630;2023-04-04T00:28:25;102369.44;;;0.38;53.32
7524;BME280;3803;51.666;7.630;2023-04-04T00:28:58;102370.31;;;0.39;53.20
7524;BME280;3803;51.666;7.630;2023-04-04T00:29:18;102385.56;;;0.46;53.15
7524;BME280;3803;51.666;7.630;2023-04-04T00:29:39;102365.66;;;0.35;53.51
7524;BME280;3803;51.666;7.630;2023-04-04T00:29:59;102369.13;;;0.35;53.63
7524;BME280;3803;51.666;7.630;2023-04-04T00:30:20;102372.72;;;0.37;53.24
7524;BME280;3803;51.666;7.630;2023-04-04T00:30:40;102384.22;;;0.41;53.43
7524;BME280;3803;51.666;7.630;2023-04-04T00:31:02;102369.72;;;0.33;53.42
7524;BME280;3803;51.666;7.630;2023-04-04T00:31:22;102382.41;;;0.40;53.26
7524;BME280;3803;51.666;7.630;2023-04-04T00:31:43;102375.47;;;0.39;53.19
7524;BME280;3803;51.666;7.630;2023-04-04T00:32:04;102371.09;;;0.38;52.95
7524;BME280;3803;51.666;7.630;2023-04-04T00:32:24;102366.72;;;0.37;53.53
7524;BME280;3803;51.666;7.630;2023-04-04T00:32:45;102373.66;;;0.38;53.43
7524;BME280;3803;51.666;7.630;2023-04-04T00:33:06;102376.06;;;0.36;53.14
7524;BME280;3803;51.666;7.630;2023-04-04T00:33:27;102392.69;;;0.40;53.41
7524;BME280;3803;51.666;7.630;2023-04-04T00:33:48;102381.22;;;0.36;53.33
7524;BME280;3803;51.666;7.630;2023-04-04T00:34:08;102365.84;;;0.28;53.36
7524;BME280;3803;51.666;7.630;2023-04-04T00:34:29;102373.66;;;0.29;53.60
7524;BME280;3803;51.666;7.630;2023-04-04T00:34:53;102369.72;;;0.33;53.64
7524;BME280;3803;51.666;7.630;2023-04-04T00:35:13;102376.41;;;0.31;53.53
7524;BME280;3803;51.666;7.630;2023-04-04T00:35:34;102370.06;;;0.27;53.44
7524;BME280;3803;51.666;7.630;2023-04-04T00:35:55;102361.16;;;0.23;53.56
7524;BME280;3803;51.666;7.630;2023-04-04T00:36:15;102375.34;;;0.29;53.48
7524;BME280;3803;51.666;7.630;2023-04-04T00:36:36;102369.16;;;0.27;53.86
7524;BME280;3803;51.666;7.630;2023-04-04T00:36:57;102382.56;;;0.33;53.74
7524;BME280;3803;51.666;7.630;2023-04-04T00:37:18;102389.06;;;0.38;53.59
7524;BME280;3803;51.666;7.630;2023-04-04T00:37:38;102373.06;;;0.32;53.93
7524;BME280;3803;51.666;7.630;2023-04-04T00:38:04;102363.72;;;0.23;53.74
7524;BME280;3803;51.666;7.630;2023-04-04T00:38:25;102377.16;;;0.30;53.70
7524;BME280;3803;51.666;7.630;2023-04-04T00:38:45;102361.16;;;0.23;53.73
7524;BME280;3803;51.666;7.630;2023-04-04T00:39:06;102374.31;;;0.27;53.78
7524;BME280;3803;51.666;7.630;2023-04-04T00:39:27;102368.69;;;0.22;53.73
7524;BME280;3803;51.666;7.630;2023-04-04T00:39:47;102369.00;;;0.25;53.57
7524;BME280;3803;51.666;7.630;2023-04-04T00:40:09;102383.06;;;0.29;53.32
7524;BME280;3803;51.666;7.630;2023-04-04T00:40:30;102363.44;;;0.20;53.93
7524;BME280;3803;51.666;7.630;2023-04-04T00:40:50;102376.56;;;0.23;53.79
7524;BME280;3803;51.666;7.630;2023-04-04T00:41:11;102379.72;;;0.30;53.86
7524;BME280;3803;51.666;7.630;2023-04-04T00:41:32;102385.03;;;0.31;53.72
7524;BME280;3803;51.666;7.630;2023-04-04T00:41:53;102385.91;;;0.32;53.72
7524;BME280;3803;51.666;7.630;2023-04-04T00:42:13;102361.91;;;0.22;53.79
7524;BME280;3803;51.666;7.630;2023-04-04T00:42:34;102365.25;;;0.21;53.47
7524;BME280;3803;51.666;7.630;2023-04-04T00:42:55;102364.31;;;0.21;53.83
7524;BME280;3803;51.666;7.630;2023-04-04T00:43:17;102370.38;;;0.21;53.62
7524;BME280;3803;51.666;7.630;2023-04-04T00:43:39;102363.56;;;0.22;53.66
7524;BME280;3803;51.666;7.630;2023-04-04T00:44:00;102365.84;;;0.19;53.65
7524;BME280;3803;51.666;7.630;2023-04-04T00:44:20;102364.03;;;0.18;54.03
7524;BME280;3803;51.666;7.630;2023-04-04T00:44:41;102363.13;;;0.17;53.96
7524;BME280;3803;51.666;7.630;2023-04-04T00:45:05;102365.56;;;0.16;53.76
7524;BME280;3803;51.666;7.630;2023-04-04T00:45:26;102378.97;;;0.22;53.91
7524;BME280;3803;51.666;7.630;2023-04-04T00:45:46;102369.78;;;0.15;54.04
7524;BME280;3803;51.666;7.630;2023-04-04T00:46:08;102380.03;;;0.24;54.10
7524;BME280;3803;51.666;7.630;2023-04-04T00:46:30;102380.16;;;0.25;54.14
7524;BME280;3803;51.666;7.630;2023-04-04T00:46:52;102376.28;;;0.20;54.21
7524;BME280;3803;51.666;7.630;2023-04-04T00:47:12;102354.22;;;0.14;54.33
7524;BME280;3803;51.666;7.630;2023-04-04T00:47:33;102383.66;;;0.26;53.98
7524;BME280;3803;51.666;7.630;2023-04-04T00:47:54;102363.44;;;0.11;54.28
7524;BME280;3803;51.666;7.630;2023-04-04T00:48:15;102374.31;;;0.18;54.14
7524;BME280;3803;51.666;7.630;2023-04-04T00:48:36;102366.44;;;0.16;54.08
7524;BME280;3803;51.666;7.630;2023-04-04T00:48:56;102356.34;;;0.09;54.20
7524;BME280;3803;51.666;7.630;2023-04-04T00:49:17;102368.75;;;0.13;54.08
7524;BME280;3803;51.666;7.630;2023-04-04T00:49:38;102361.81;;;0.12;54.20
7524;BME280;3803;51.666;7.630;2023-04-04T00:49:58;102371.75;;;0.18;54.30
7524;BME280;3803;51.666;7.630;2023-04-04T00:50:19;102376.72;;;0.16;54.23
7524;BME280;3803;51.666;7.630;2023-04-04T00:50:40;102367.38;;;0.17;53.98
7524;BME280;3803;51.666;7.630;2023-04-04T00:51:01;102369.63;;;0.14;54.34
7524;BME280;3803;51.666;7.630;2023-04-04T00:51:21;102376.28;;;0.20;54.44
7524;BME280;3803;51.666;7.630;2023-04-04T00:51:42;102361.03;;;0.13;54.34
7524;BME280;3803;51.666;7.630;2023-04-04T00:52:03;102372.19;;;0.14;54.52
7524;BME280;3803;51.666;7.630;2023-04-04T00:52:26;102365.41;;;0.14;54.45
7524;BME280;3803;51.666;7.630;2023-04-04T00:52:46;102365.84;;;0.19;54.25
7524;BME280;3803;51.666;7.630;2023-04-04T00:53:07;102383.50;;;0.24;54.22
7524;BME280;3803;51.666;7.630;2023-04-04T00:53:28;102366.78;;;0.19;54.44
7524;BME280;3803;51.666;7.630;2023-04-04T00:53:49;102386.06;;;0.24;54.48
7524;BME280;3803;51.666;7.630;2023-04-04T00:54:10;102382.47;;;0.22;54.27
7524;BME280;3803;51.666;7.630;2023-04-04T00:54:40;102363.59;;;0.13;54.33
7524;BME280;3803;51.666;7.630;2023-04-04T00:55:01;102365.25;;;0.12;54.56
7524;BME280;3803;51.666;7.630;2023-04-04T00:55:23;102371.59;;;0.16;54.31
7524;BME280;3803;51.666;7.630;2023-04-04T00:55:45;102363.28;;;0.10;54.48
7524;BME280;3803;51.666;7.630;2023-04-04T00:56:07;102363.59;;;0.13;54.62
7524;BME280;3803;51.666;7.630;2023-04-04T00:56:29;102366.16;;;0.13;54.35
7524;BME280;3803;51.666;7.630;2023-04-04T00:56:52;102385.03;;;0.22;54.75
7524;BME280;3803;51.666;7.630;2023-04-04T00:57:15;102369.50;;;0.12;54.54
7524;BME280;3803;51.666;7.630;2023-04-04T00:57:36;102354.53;;;0.08;54.59
7524;BME280;3803;51.666;7.630;2023-04-04T00:57:57;102378.69;;;0.19;54.54
7524;BME280;3803;51.666;7.630;2023-04-04T00:58:18;102354.38;;;0.06;54.37
7524;BME280;3803;51.666;7.630;2023-04-04T00:58:40;102363.16;;;0.08;54.70
7524;BME280;3803;51.666;7.630;2023-04-04T00:59:02;102375.84;;;0.16;54.80
7524;BME280;3803;51.666;7.630;2023-04-04T00:59:24;102363.16;;;0.08;54.69
7524;BME280;3803;51.666;7.630;2023-04-04T00:59:47;102366.78;;;0.10;54.61
7524;BME280;3803;51.666;7.630;2023-04-04T01:00:08;102380.06;;;0.15;54.74
7524;BME280;3803;51.666;7.630;2023-04-04T01:00:29;102374.63;;;0.12;54.58
7524;BME280;3803;51.666;7.630;2023-04-04T01:00:50;102360.44;;;0.07;54.67
7524;BME280;3803;51.666;7.630;2023-04-04T01:01:11;102376.72;;;0.16;54.82
7524;BME280;3803;51.666;7.630;2023-04-04T01:01:32;102372.84;;;0.11;54.73
7524;BME280;3803;51.666;7.630;2023-04-04T01:01:52;102368.44;;;0.10;54.62
7524;BME280;3803;51.666;7.630;2023-04-04T01:02:13;102372.97;;;0.12;54.82
7524;BME280;3803;51.666;7.630;2023-04-04T01:02:34;102370.38;;;0.12;54.69
7524;BME280;3803;51.666;7.630;2023-04-04T01:02:55;102360.16;;;0.04;54.49
7524;BME280;3803;51.666;7.630;2023-04-04T01:03:16;102372.84;;;0.11;54.77
7524;BME280;3803;51.666;7.630;2023-04-04T01:03:37;102361.03;;;0.04;54.90
7524;BME280;3803;51.666;7.630;2023-04-04T01:03:59;102365.56;;;0.07;54.98
7524;BME280;3803;51.666;7.630;2023-04-04T01:04:20;102371.63;;;0.07;55.04
7524;BME280;3803;51.666;7.630;2023-04-04T01:04:41;102363.50;;;0.03;54.72
7524;BME280;3803;51.666;7.630;2023-04-04T01:05:02;102368.63;;;0.03;54.89
7524;BME280;3803;51.666;7.630;2023-04-04T01:05:23;102360.59;;;-0.00;54.86
7524;BME280;3803;51.666;7.630;2023-04-04T01:05:44;102369.50;;;0.03;54.81
7524;BME280;3803;51.666;7.630;2023-04-04T01:06:06;102373.75;;;0.03;54.78
7524;BME280;3803;51.666;7.630;2023-04-04T01:06:27;102361.53;;;0.00;55.16
7524;BME280;3803;51.666;7.630;2023-04-04T01:06:50;102381.25;;;0.10;54.87
7524;BME280;3803;51.666;7.630;2023-04-04T01:07:11;102360.91;;;0.03;55.04
7524;BME280;3803;51.666;7.630;2023-04-04T01:07:34;102365.28;;;0.04;54.95
7524;BME280;3803;51.666;7.630;2023-04-04T01:07:54;102367.88;;;0.04;54.95
7524;BME280;3803;51.666;7.630;2023-04-04T01:08:37;102385.19;;;0.15;54.89
7524;BME280;3803;51.666;7.630;2023-04-04T01:08:58;102359.09;;;0.02;54.77
7524;BME280;3803;51.666;7.630;2023-04-04T01:09:20;102369.66;;;0.05;55.05
7524;BME280;3803;51.666;7.630;2023-04-04T01:09:41;102357.00;;;-0.03;54.99
7524;BME280;3803;51.666;7.630;2023-04-04T01:10:01;102352.13;;;0.01;54.98
7524;BME280;3803;51.666;7.630;2023-04-04T01:10:26;102366.78;;;0.02;54.91
7524;BME280;3803;51.666;7.630;2023-04-04T01:10:49;102356.84;;;-0.04;55.19
7524;BME280;3803;51.666;7.630;2023-04-04T01:11:10;102360.31;;;-0.04;55.35
7524;BME280;3803;51.666;7.630;2023-04-04T01:11:31;102368.63;;;0.03;55.34
7524;BME280;3803;51.666;7.630;2023-04-04T01:11:54;102349.63;;;-0.08;55.06
7524;BME280;3803;51.666;7.630;2023-04-04T01:12:15;102356.06;;;-0.03;55.39
7524;BME280;3803;51.666;7.630;2023-04-04T01:12:36;102369.34;;;0.02;55.27
7524;BME280;3803;51.666;7.630;2023-04-04T01:13:15;102362.88;;;-0.04;55.39
7524;BME280;3803;51.666;7.630;2023-04-04T01:13:54;102380.97;;;0.07;54.87
7524;BME280;3803;51.666;7.630;2023-04-04T01:14:15;102362.41;;;0.01;55.14
7524;BME280;3803;51.666;7.630;2023-04-04T01:14:36;102359.84;;;0.01;55.04
7524;BME280;3803;51.666;7.630;2023-04-04T01:14:57;102364.38;;;0.03;54.74
7524;BME280;3803;51.666;7.630;2023-04-04T01:15:18;102357.44;;;0.02;54.99
7524;BME280;3803;51.666;7.630;2023-04-04T01:15:39;102369.50;;;0.03;55.14
7524;BME280;3803;51.666;7.630;2023-04-04T01:16:01;102373.00;;;0.04;54.82
7524;BME280;3803;51.666;7.630;2023-04-04T01:16:22;102367.53;;;0.01;54.94
7524;BME280;3803;51.666;7.630;2023-04-04T01:16:55;102364.69;;;-0.03;55.06
7524;BME280;3803;51.666;7.630;2023-04-04T01:17:21;102384.59;;;0.09;55.15
7524;BME280;3803;51.666;7.630;2023-04-04T01:17:43;102375.56;;;0.04;55.20
7524;BME280;3803;51.666;7.630;2023-04-04T01:18:04;102378.88;;;0.03;55.16
7524;BME280;3803;51.666;7.630;2023-04-04T01:18:27;102391.53;;;0.10;55.19
7524;BME280;3803;51.666;7.630;2023-04-04T01:18:49;102370.88;;;-0.00;55.18
7524;BME280;3803;51.666;7.630;2023-04-04T01:19:16;102370.09;;;0.01;55.16
7524;BME280;3803;51.666;7.630;2023-04-04T01:19:47;102374.34;;;0.00;55.04
7524;BME280;3803;51.666;7.630;2023-04-04T01:20:16;102375.25;;;0.01;55.31
7524;BME280;3803;51.666;7.630;2023-04-04T01:20:59;102369.66;;;-0.04;55.02
7524;BME280;3803;51.666;7.630;2023-04-04T01:21:21;102382.06;;;0.00;55.11
7524;BME280;3803;51.666;7.630;2023-04-04T01:21:44;102370.44;;;-0.05;55.02
7524;BME280;3803;51.666;7.630;2023-04-04T01:22:07;102361.09;;;-0.05;55.12
7524;BME280;3803;51.666;7.630;2023-04-04T01:22:29;102360.16;;;-0.05;54.89
7524;BME280;3803;51.666;7.630;2023-04-04T01:22:50;102360.75;;;-0.08;55.06
7524;BME280;3803;51.666;7.630;2023-04-04T01:23:13;102368.63;;;-0.06;55.53
7524;BME280;3803;51.666;7.630;2023-04-04T01:23:38;102366.66;;;-0.09;55.15
7524;BME280;3803;51.666;7.630;2023-04-04T01:24:05;102355.66;;;-0.17;55.44
7524;BME280;3803;51.666;7.630;2023-04-04T01:24:50;102353.97;;;-0.16;55.57
7524;BME280;3803;51.666;7.630;2023-04-04T01:25:13;102363.38;;;-0.17;55.30
7524;BME280;3803;51.666;7.630;2023-04-04T01:25:36;102362.44;;;-0.17;55.84
7524;BME280;3803;51.666;7.630;2023-04-04T01:26:02;102373.59;;;-0.08;55.61
7524;BME280;3803;51.666;7.630;2023-04-04T01:26:24;102362.72;;;-0.14;55.52
7524;BME280;3803;51.666;7.630;2023-04-04T01:26:49;102351.41;;;-0.16;55.52
7524;BME280;3803;51.666;7.630;2023-04-04T01:27:10;102370.91;;;-0.09;55.27
7524;BME280;3803;51.666;7.630;2023-04-04T01:27:36;102357.16;;;-0.19;55.44
7524;BME280;3803;51.666;7.630;2023-04-04T01:28:03;102376.31;;;-0.06;55.43
7524;BME280;3803;51.666;7.630;2023-04-04T01:28:24;102355.78;;;-0.15;55.44
7524;BME280;3803;51.666;7.630;2023-04-04T01:28:45;102350.38;;;-0.18;55.43
7524;BME280;3803;51.666;7.630;2023-04-04T01:29:07;102361.69;;;-0.16;55.67
7524;BME280;3803;51.666;7.630;2023-04-04T01:29:28;102379.66;;;-0.07;55.73
7524;BME280;3803;51.666;7.630;2023-04-04T01:29:50;102367.13;;;-0.13;55.60
7524;BME280;3803;51.666;7.630;2023-04-04T01:30:11;102367.84;;;-0.14;55.56
7524;BME280;3803;51.666;7.630;2023-04-04T01:30:35;102357.75;;;-0.12;55.40
7524;BME280;3803;51.666;7.630;2023-04-04T01:30:59;102363.50;;;-0.15;55.64
7524;BME280;3803;51.666;7.630;2023-04-04T01:31:35;102387.94;;;-0.01;55.86
7524;BME280;3803;51.666;7.630;2023-04-04T01:32:12;102368.34;;;-0.09;55.44
7524;BME280;3803;51.666;7.630;2023-04-04T01:33:27;102357.44;;;-0.07;55.49
7524;BME280;3803;51.666;7.630;2023-04-04T01:33:56;102364.38;;;-0.06;55.46
7524;BME280;3803;51.666;7.630;2023-04-04T01:34:28;102358.63;;;-0.03;55.52
7524;BME280;3803;51.666;7.630;2023-04-04T01:35:52;102368.91;;;0.06;55.46
7524;BME280;3803;51.666;7.630;2023-04-04T01:36:19;102378.41;;;0.07;55.36
7524;BME280;3803;51.666;7.630;2023-04-04T01:36:47;102382.03;;;0.09;55.51
7524;BME280;3803;51.666;7.630;2023-04-04T01:37:35;102381.91;;;0.07;55.37
7524;BME280;3803;51.666;7.630;2023-04-04T01:38:13;102375.69;;;0.05;55.46
7524;BME280;3803;51.666;7.630;2023-04-04T01:38:52;102353.81;;;-0.09;55.09
7524;BME280;3803;51.666;7.630;2023-04-04T01:39:14;102378.13;;;0.04;55.29
7524;BME280;3803;51.666;7.630;2023-04-04T01:40:27;102380.69;;;0.04;55.37
7524;BME280;3803;51.666;7.630;2023-04-04T01:40:31;102353.53;;;-0.12;55.54
7524;BME280;3803;51.666;7.630;2023-04-04T01:41:01;102364.69;;;-0.03;55.54
7524;BME280;3803;51.666;7.630;2023-04-04T01:41:26;102358.19;;;-0.08;55.50
7524;BME280;3803;51.666;7.630;2023-04-04T01:41:55;102361.97;;;-0.04;55.48
7524;BME280;3803;51.666;7.630;2023-04-04T01:42:16;102368.31;;;-0.00;55.50
7524;BME280;3803;51.666;7.630;2023-04-04T01:42:41;102368.31;;;-0.00;55.46
7524;BME280;3803;51.666;7.630;2023-04-04T01:43:03;102353.81;;;-0.09;55.61
7524;BME280;3803;51.666;7.630;2023-04-04T01:43:29;102368.31;;;-0.00;55.59
7524;BME280;3803;51.666;7.630;2023-04-04T01:43:51;102355.94;;;-0.05;55.29
7524;BME280;3803;51.666;7.630;2023-04-04T01:44:12;102359.25;;;-0.06;55.70
7524;BME280;3803;51.666;7.630;2023-04-04T01:44:35;102367.53;;;0.01;55.52
7524;BME280;3803;51.666;7.630;2023-04-04T01:44:56;102358.19;;;-0.08;55.28
7524;BME280;3803;51.666;7.630;2023-04-04T01:45:21;102339.03;;;-0.11;55.45
7524;BME280;3803;51.666;7.630;2023-04-04T01:45:43;102350.66;;;-0.06;55.11
7524;BME280;3803;51.666;7.630;2023-04-04T01:46:06;102343.56;;;-0.09;55.42
7524;BME280;3803;51.666;7.630;2023-04-04T01:46:28;102370.44;;;0.04;55.48
7524;BME280;3803;51.666;7.630;2023-04-04T01:46:54;102353.66;;;-0.02;55.36
7524;BME280;3803;51.666;7.630;2023-04-04T01:47:15;102350.06;;;-0.04;55.34
7524;BME280;3803;51.666;7.630;2023-04-04T01:47:39;102344.59;;;-0.07;55.56
7524;BME280;3803;51.666;7.630;2023-04-04T01:48:38;102371.75;;;0.09;55.46
7524;BME280;3803;51.666;7.630;2023-04-04T01:49:00;102349.63;;;-0.08;55.50
7524;BME280;3803;51.666;7.630;2023-04-04T01:49:24;102356.56;;;-0.07;55.44
7524;BME280;3803;51.666;7.630;2023-04-04T01:49:45;102344.75;;;-0.14;55.53
7524;BME280;3803;51.666;7.630;2023-04-04T01:50:09;102353.06;;;-0.08;55.56
7524;BME280;3803;51.666;7.630;2023-04-04T01:50:30;102364.38;;;-0.06;55.70
7524;BME280;3803;51.666;7.630;2023-04-04T01:50:51;102357.91;;;-0.11;55.63
7524;BME280;3803;51.666;7.630;2023-04-04T01:51:12;102365.13;;;-0.07;55.57
7524;BME280;3803;51.666;7.630;2023-04-04T01:51:33;102351.41;;;-0.16;55.73
7524;BME280;3803;51.666;7.630;2023-04-04T01:51:54;102353.22;;;-0.15;55.64
7524;BME280;3803;51.666;7.630;2023-04-04T01:52:15;102351.41;;;-0.16;55.30
7524;BME280;3803;51.666;7.630;2023-04-04T01:52:36;102353.53;;;-0.12;55.63
7524;BME280;3803;51.666;7.630;2023-04-04T01:52:57;102347.81;;;-0.18;55.91
7524;BME280;3803;51.666;7.630;2023-04-04T01:53:18;102348.56;;;-0.19;55.76
7524;BME280;3803;51.666;7.630;2023-04-04T01:53:39;102362.28;;;-0.19;55.66
7524;BME280;3803;51.666;7.630;2023-04-04T01:54:00;102350.97;;;-0.21;56.10
7524;BME280;3803;51.666;7.630;2023-04-04T01:54:21;102342.06;;;-0.24;55.88
7524;BME280;3803;51.666;7.630;2023-04-04T01:54:42;102358.66;;;-0.21;55.77
7524;BME280;3803;51.666;7.630;2023-04-04T01:55:03;102350.09;;;-0.21;55.76
7524;BME280;3803;51.666;7.630;2023-04-04T01:55:24;102348.13;;;-0.24;55.86
7524;BME280;3803;51.666;7.630;2023-04-04T01:55:45;102343.88;;;-0.23;56.12
7524;BME280;3803;51.666;7.630;2023-04-04T01:56:07;102340.25;;;-0.25;56.25
7524;BME280;3803;51.666;7.630;2023-04-04T01:56:29;102356.25;;;-0.19;55.99
7524;BME280;3803;51.666;7.630;2023-04-04T01:56:49;102342.38;;;-0.21;56.10
7524;BME280;3803;51.666;7.630;2023-04-04T01:57:19;102345.84;;;-0.21;56.15
7524;BME280;3803;51.666;7.630;2023-04-04T01:57:40;102332.84;;;-0.22;55.99
7524;BME280;3803;51.666;7.630;2023-04-04T01:58:01;102328.47;;;-0.23;56.12
7524;BME280;3803;51.666;7.630;2023-04-04T01:58:22;102336.50;;;-0.20;56.18
7524;BME280;3803;51.666;7.630;2023-04-04T01:58:43;102340.09;;;-0.18;55.64
7524;BME280;3803;51.666;7.630;2023-04-04T01:59:03;102341.16;;;-0.16;55.82
7524;BME280;3803;51.666;7.630;2023-04-04T01:59:24;102337.53;;;-0.18;56.04
7524;BME280;3803;51.666;7.630;2023-04-04T02:00:00;102335.72;;;-0.19;55.92
7524;BME280;3803;51.666;7.630;2023-04-04T02:00:20;102330.28;;;-0.22;55.96
7524;BME280;3803;51.666;7.630;2023-04-04T02:00:41;102350.22;;;-0.11;55.83
7524;BME280;3803;51.666;7.630;2023-04-04T02:01:01;102354.88;;;-0.07;55.85
7524;BME280;3803;51.666;7.630;2023-04-04T02:01:22;102329.84;;;-0.18;55.67
7524;BME280;3803;51.666;7.630;2023-04-04T02:01:43;102349.63;;;-0.08;56.02
7524;BME280;3803;51.666;7.630;2023-04-04T02:02:04;102336.03;;;-0.16;56.06
7524;BME280;3803;51.666;7.630;2023-04-04T02:02:25;102341.16;;;-0.16;55.79
7524;BME280;3803;51.666;7.630;2023-04-04T02:02:46;102329.56;;;-0.21;56.12
7524;BME280;3803;51.666;7.630;2023-04-04T02:03:07;102325.16;;;-0.22;55.78
7524;BME280;3803;51.666;7.630;2023-04-04T02:03:28;102346.59;;;-0.13;55.71
7524;BME280;3803;51.666;7.630;2023-04-04T02:03:49;102336.34;;;-0.22;55.82
7524;BME280;3803;51.666;7.630;2023-04-04T02:04:12;102339.94;;;-0.20;55.77
7524;BME280;3803;51.666;7.630;2023-04-04T02:04:34;102339.06;;;-0.20;56.11